Time;durP1;ratioP1;P1;durP2;ratioP2;P2;SDS_P1;SDS_P2;PMS_P1;PMS_P2;Temp;Humidity;BMP_temperature;BMP_pressure;BME280_temperature;BME280_humidity;BME280_pressure;Samples;Min_cycle;Max_cycle;Signal;HPM_P1;HPM_P2
2022/03/19 00:00:38;;;;;;;50.63;16.33;;;;;;;-1.31;87.04;101342.78;4343348;32;20126;-73
2022/03/19 00:03:08;;;;;;;54.00;16.55;;;;;;;-1.13;89.91;101410.16;4350955;32;20083;-74
2022/03/19 00:05:34;;;;;;;45.85;17.67;;;;;;;-1.83;90.50;101295.53;4353683;32;20035;-73
2022/03/19 00:08:02;;;;;;;53.83;16.27;;;;;;;-1.35;92.46;101392.41;4357357;32;20081;-73
2022/03/19 00:10:29;;;;;;;47.28;14.82;;;;;;;-1.44;94.47;101392.25;4344108;32;20345;-73
2022/03/19 00:12:55;;;;;;;42.17;15.45;;;;;;;-1.55;93.76;101393.03;4356685;32;20040;-73
2022/03/19 00:15:22;;;;;;;52.50;17.45;;;;;;;-1.56;94.61;101384.28;4356294;32;20039;-74
2022/03/19 00:17:49;;;;;;;39.08;14.40;;;;;;;-1.53;98.14;101380.53;4346536;32;20074;-72
2022/03/19 00:20:15;;;;;;;51.20;17.02;;;;;;;-1.88;97.95;101328.53;4353803;32;20371;-72
2022/03/19 00:22:43;;;;;;;76.32;20.65;;;;;;;-1.85;97.16;101329.16;4341590;33;20039;-72
2022/03/19 00:25:12;;;;;;;70.18;19.10;;;;;;;-1.86;98.67;101327.44;4343706;32;20044;-72
2022/03/19 00:27:40;;;;;;;67.15;19.92;;;;;;;-1.87;97.97;101331.06;4355247;32;20083;-72
2022/03/19 00:30:09;;;;;;;56.47;17.27;;;;;;;-1.57;97.50;101390.50;4353435;32;20082;-73
2022/03/19 00:32:36;;;;;;;49.58;15.68;;;;;;;-1.68;97.27;101356.09;4355522;32;20036;-72
2022/03/19 00:35:03;;;;;;;54.45;16.98;;;;;;;-1.53;96.73;101378.75;4355450;32;20036;-71
2022/03/19 00:37:32;;;;;;;33.33;12.05;;;;;;;-1.50;97.72;101375.91;4353727;32;20373;-72
2022/03/19 00:39:58;;;;;;;34.85;13.18;;;;;;;-1.46;98.10;101372.06;4356165;32;20082;-72
2022/03/19 00:42:25;;;;;;;38.17;14.30;;;;;;;-1.44;95.94;101347.31;4355135;32;20047;-72
2022/03/19 00:44:51;;;;;;;39.33;13.30;;;;;;;-1.12;93.93;101374.84;4357164;32;20048;-71
2022/03/19 00:47:18;;;;;;;45.58;15.20;;;;;;;-1.03;92.50;101367.16;4355775;32;20485;-76
2022/03/19 00:49:44;;;;;;;33.60;12.93;;;;;;;-1.42;91.18;101303.12;4340985;33;20052;-72
2022/03/19 00:52:10;;;;;;;44.72;14.25;;;;;;;-1.31;89.19;101332.22;4343483;32;20373;-72
2022/03/19 00:54:37;;;;;;;29.70;11.43;;;;;;;-1.13;88.59;101362.56;4355730;32;20083;-71
2022/03/19 00:57:03;;;;;;;32.42;13.35;;;;;;;-1.10;87.86;101362.34;4356477;32;20032;-71
2022/03/19 00:59:30;;;;;;;35.00;12.80;;;;;;;-1.21;87.70;101359.66;4342828;32;20036;-73
2022/03/19 01:01:56;;;;;;;30.40;12.68;;;;;;;-1.42;87.95;101318.97;4355554;32;20036;-72
2022/03/19 01:04:23;;;;;;;31.98;14.00;;;;;;;-1.16;89.51;101368.06;4330483;33;20423;-72
2022/03/19 01:06:50;;;;;;;37.35;14.90;;;;;;;-1.44;92.54;101348.16;4336639;33;20073;-71
2022/03/19 01:09:17;;;;;;;50.72;16.50;;;;;;;-1.36;93.55;101366.09;4341599;33;20028;-71
2022/03/19 01:11:44;;;;;;;52.42;16.92;;;;;;;-1.49;95.60;101366.16;4341780;32;20065;-72
2022/03/19 01:14:10;;;;;;;51.58;19.83;;;;;;;-1.51;96.84;101373.38;4356417;32;20251;-71
2022/03/19 01:16:37;;;;;;;67.75;23.33;;;;;;;-1.60;98.99;101369.59;4356371;32;20400;-73
2022/03/19 01:19:03;;;;;;;72.53;25.05;;;;;;;-1.75;100.00;101361.00;4355839;32;20098;-72
2022/03/19 01:21:30;;;;;;;85.07;24.67;;;;;;;-1.77;100.00;101369.97;4356049;32;20064;-72
2022/03/19 01:23:56;;;;;;;68.07;23.58;;;;;;;-2.31;100.00;101300.81;4354071;32;20395;-74
2022/03/19 01:26:24;;;;;;;75.22;23.15;;;;;;;-2.06;100.00;101362.37;4354080;32;20343;-73
2022/03/19 01:28:50;;;;;;;66.72;21.95;;;;;;;-2.23;100.00;101350.41;4356135;32;20055;-72
2022/03/19 01:31:17;;;;;;;51.47;19.15;;;;;;;-2.22;100.00;101362.63;4355934;32;20167;-73
2022/03/19 01:33:43;;;;;;;68.85;19.35;;;;;;;-2.61;100.00;101309.94;4356630;32;20422;-73
2022/03/19 01:36:10;;;;;;;51.03;17.55;;;;;;;-2.46;100.00;101350.22;4353770;32;20175;-74
2022/03/19 01:38:37;;;;;;;40.17;15.73;;;;;;;-2.76;100.00;101300.47;4340343;33;20039;-73
2022/03/19 01:41:05;;;;;;;53.67;14.65;;;;;;;-2.76;100.00;101295.19;4356142;32;20081;-73
2022/03/19 01:43:31;;;;;;;51.05;17.55;;;;;;;-2.37;100.00;101359.28;4354337;32;20445;-73
2022/03/19 01:45:59;;;;;;;49.38;17.92;;;;;;;-2.43;100.00;101350.00;4356196;32;20083;-73
2022/03/19 01:50:59;;;;;;;55.83;15.15;;;;;;;-2.41;100.00;101352.53;4356109;32;20051;-73
2022/03/19 01:53:25;;;;;;;35.85;15.13;;;;;;;-2.98;100.00;101265.06;4356097;32;20365;-72
2022/03/19 01:55:53;;;;;;;40.25;16.30;;;;;;;-2.55;100.00;101350.91;4342811;32;20024;-73
2022/03/19 01:58:20;;;;;;;32.80;12.85;;;;;;;-2.58;100.00;101346.66;4354609;32;20442;-73
2022/03/19 02:00:47;;;;;;;40.00;12.85;;;;;;;-2.60;100.00;101338.03;4341553;32;20331;-72
2022/03/19 02:03:14;;;;;;;32.75;10.75;;;;;;;-2.80;100.00;101278.75;4355572;32;20117;-73
2022/03/19 02:05:41;;;;;;;41.28;14.10;;;;;;;-2.60;100.00;101290.53;4355927;32;20062;-73
2022/03/19 02:08:07;;;;;;;26.27;10.82;;;;;;;-2.48;100.00;101278.25;4342298;32;20042;-73
2022/03/19 02:10:34;;;;;;;27.70;11.55;;;;;;;-1.99;100.00;101342.50;4354166;32;20066;-75
2022/03/19 02:13:01;;;;;;;36.72;13.35;;;;;;;-2.24;100.00;101286.19;4355227;32;20047;-74
2022/03/19 02:15:27;;;;;;;35.88;12.90;;;;;;;-1.87;100.00;101344.28;4355851;32;20423;-74
2022/03/19 02:17:54;;;;;;;32.17;13.00;;;;;;;-1.94;100.00;101329.81;4355503;32;20411;-74
2022/03/19 02:20:21;;;;;;;40.53;13.48;;;;;;;-1.90;99.63;101335.72;4342156;32;20083;-75
2022/03/19 02:25:39;;;;;;;33.50;12.82;;;;;;;-1.85;99.32;101344.12;4355796;32;20161;-74
2022/03/19 02:28:06;;;;;;;34.05;14.68;;;;;;;-1.90;100.00;101341.00;4355622;32;20395;-74
2022/03/19 02:30:38;;;;;;;40.12;13.57;;;;;;;-2.04;100.00;101334.09;4340341;32;20047;-76
2022/03/19 02:33:04;;;;;;;32.42;11.35;;;;;;;-2.18;100.00;101342.16;4339498;33;20062;-74
2022/03/19 02:35:30;;;;;;;26.85;11.85;;;;;;;-2.26;100.00;101329.50;4351169;32;20135;-73
2022/03/19 02:37:57;;;;;;;29.75;10.25;;;;;;;-2.10;100.00;101339.81;4355015;32;20055;-73
2022/03/19 02:40:23;;;;;;;25.08;10.30;;;;;;;-2.31;100.00;101294.66;4355187;32;20044;-73
2022/03/19 02:42:52;;;;;;;28.98;11.55;;;;;;;-1.88;100.00;101350.50;4352037;32;20470;-73
2022/03/19 02:45:21;;;;;;;26.40;10.55;;;;;;;-1.76;99.47;101342.63;4355592;32;20721;-73
2022/03/19 02:47:57;;;;;;;22.48;10.10;;;;;;;-1.72;97.99;101338.81;4370151;32;20062;-73
2022/03/19 02:50:27;;;;;;;24.23;11.07;;;;;;;-1.92;96.68;101296.22;4354905;32;20394;-75
2022/03/19 02:52:55;;;;;;;28.38;10.32;;;;;;;-1.54;96.85;101342.72;4369354;32;20121;-73
2022/03/19 02:55:21;;;;;;;26.85;10.68;;;;;;;-1.86;94.95;101274.63;4362038;32;20062;-73
2022/03/19 02:57:48;;;;;;;31.05;11.23;;;;;;;-1.51;94.73;101342.50;4341943;32;20070;-73
2022/03/19 03:00:15;;;;;;;23.95;10.80;;;;;;;-1.49;94.11;101342.37;4356813;32;20069;-73
2022/03/19 03:02:41;;;;;;;27.27;11.90;;;;;;;-1.60;94.81;101343.16;4360908;32;20066;-75
2022/03/19 03:05:10;;;;;;;27.30;12.15;;;;;;;-1.93;94.83;101291.91;4340560;33;20452;-73
2022/03/19 03:07:37;;;;;;;32.90;13.13;;;;;;;-1.74;96.37;101340.72;4340161;33;20044;-73
2022/03/19 03:10:05;;;;;;;31.45;12.90;;;;;;;-1.83;99.67;101348.34;4340701;33;20074;-73
2022/03/19 03:12:33;;;;;;;33.72;11.73;;;;;;;-2.22;100.00;101294.87;4338884;33;20032;-74
2022/03/19 03:14:59;;;;;;;42.90;14.10;;;;;;;-2.01;100.00;101349.69;4354502;33;20113;-74
2022/03/19 03:17:27;;;;;;;36.80;14.50;;;;;;;-2.07;100.00;101350.16;4341666;33;20078;-73
2022/03/19 03:19:54;;;;;;;33.70;12.98;;;;;;;-2.24;100.00;101328.44;4353557;33;20043;-73
2022/03/19 03:22:20;;;;;;;28.58;11.68;;;;;;;-2.25;100.00;101345.25;4355561;32;20416;-72
2022/03/19 03:24:46;;;;;;;25.48;11.35;;;;;;;-2.34;100.00;101337.97;4353151;33;20081;-73
2022/03/19 03:27:13;;;;;;;28.55;12.37;;;;;;;-2.29;100.00;101341.13;4355051;33;20078;-72
2022/03/19 03:29:40;;;;;;;35.03;12.63;;;;;;;-2.16;100.00;101345.53;4355075;33;20124;-72
2022/03/19 03:32:09;;;;;;;34.53;11.93;;;;;;;-2.15;100.00;101347.19;4354918;32;20044;-72
2022/03/19 03:34:38;;;;;;;35.60;12.65;;;;;;;-2.28;100.00;101341.94;4354495;33;20051;-74
2022/03/19 03:37:04;;;;;;;39.20;13.23;;;;;;;-2.57;100.00;101300.88;4352664;33;20040;-72
2022/03/19 03:39:31;;;;;;;33.83;13.27;;;;;;;-2.32;100.00;101351.87;4341870;33;20032;-71
2022/03/19 03:41:58;;;;;;;44.97;14.55;;;;;;;-2.75;100.00;101296.88;4354207;33;20048;-71
2022/03/19 03:44:25;;;;;;;48.15;15.57;;;;;;;-2.52;100.00;101347.19;4341147;33;20023;-71
2022/03/19 03:46:51;;;;;;;56.30;15.63;;;;;;;-2.96;100.00;101291.31;4352388;33;20044;-71
2022/03/19 03:49:18;;;;;;;30.70;14.43;;;;;;;-2.76;100.00;101332.97;4354492;33;20060;-72
2022/03/19 03:51:44;;;;;;;69.00;20.83;;;;;;;-3.14;100.00;101285.53;4354501;33;20061;-71
2022/03/19 03:54:11;;;;;;;53.00;19.42;;;;;;;-2.93;100.00;101347.31;4341061;33;20024;-71
2022/03/19 03:56:38;;;;;;;40.45;14.30;;;;;;;-3.08;100.00;101343.06;4354069;33;20343;-72
2022/03/19 03:59:05;;;;;;;42.75;13.10;;;;;;;-3.10;100.00;101331.81;4353185;33;20044;-74
2022/03/19 04:01:31;;;;;;;31.62;12.25;;;;;;;-3.15;100.00;101337.38;4354508;33;20364;-72
2022/03/19 04:03:58;;;;;;;44.33;12.40;;;;;;;-3.06;100.00;101346.47;4354724;32;20401;-72
2022/03/19 04:06:24;;;;;;;35.22;12.85;;;;;;;-3.04;100.00;101344.56;4355946;32;20070;-73
2022/03/19 04:08:50;;;;;;;34.65;11.70;;;;;;;-3.43;100.00;101285.72;4355593;32;20087;-72
2022/03/19 04:11:17;;;;;;;36.40;11.80;;;;;;;-3.17;100.00;101343.72;4357407;32;20066;-72
2022/03/19 04:13:43;;;;;;;30.15;12.43;;;;;;;-3.29;100.00;101351.50;4356719;32;20065;-72
2022/03/19 04:16:09;;;;;;;31.50;12.07;;;;;;;-3.49;100.00;101333.56;4356927;32;20500;-73
2022/03/19 04:18:44;;;;;;;26.35;10.05;;;;;;;-3.86;100.00;101304.34;4343131;32;20384;-73
2022/03/19 04:21:10;;;;;;;66.12;16.95;;;;;;;-3.61;100.00;101355.44;4356643;32;20236;-72
2022/03/19 04:23:36;;;;;;;64.18;19.08;;;;;;;-3.66;100.00;101364.47;4356950;32;20032;-71
2022/03/19 04:26:03;;;;;;;54.42;18.10;;;;;;;-3.62;100.00;101365.13;4344223;32;20452;-71
2022/03/19 04:28:29;;;;;;;96.12;25.12;;;;;;;-3.64;100.00;101361.72;4356431;32;20065;-73
2022/03/19 04:30:56;;;;;;;80.87;24.42;;;;;;;-3.97;100.00;101301.59;4353199;32;20103;-72
2022/03/19 04:33:22;;;;;;;73.85;20.30;;;;;;;-3.76;100.00;101334.41;4346695;32;20404;-71
2022/03/19 04:38:34;;;;;;;50.33;18.25;;;;;;;-3.48;100.00;101375.59;4355755;32;20426;-72
2022/03/19 04:41:00;;;;;;;37.80;14.07;;;;;;;-3.40;100.00;101359.25;4356452;32;20082;-72
2022/03/19 04:43:27;;;;;;;31.65;13.13;;;;;;;-3.51;100.00;101317.84;4354781;32;20097;-72
2022/03/19 04:45:53;;;;;;;25.05;10.52;;;;;;;-3.21;100.00;101315.88;4343832;32;20035;-72
2022/03/19 04:48:20;;;;;;;33.00;13.50;;;;;;;-2.68;100.00;101372.00;4356658;32;20079;-72
2022/03/19 04:50:48;;;;;;;35.42;12.75;;;;;;;-2.80;100.00;101309.56;4356121;32;20036;-73
2022/03/19 04:53:15;;;;;;;29.90;12.55;;;;;;;-2.60;100.00;101332.75;4356587;32;20051;-73
2022/03/19 04:55:41;;;;;;;28.58;11.57;;;;;;;-2.28;100.00;101374.47;4355765;32;20040;-73
2022/03/19 04:58:08;;;;;;;28.70;12.07;;;;;;;-2.22;100.00;101368.78;4355122;32;20041;-73
2022/03/19 05:00:36;;;;;;;29.60;11.68;;;;;;;-2.12;100.00;101374.25;4354897;32;20440;-73
2022/03/19 05:03:04;;;;;;;38.03;13.13;;;;;;;-2.07;100.00;101376.56;4350446;32;20091;-73
2022/03/19 05:05:32;;;;;;;35.35;12.98;;;;;;;-2.06;100.00;101372.94;4338801;33;20354;-74
2022/03/19 05:07:59;;;;;;;33.85;12.27;;;;;;;-2.08;100.00;101375.69;4355406;32;20442;-72
2022/03/19 05:13:11;;;;;;;27.27;11.68;;;;;;;-2.07;100.00;101387.13;4356387;32;20081;-73
2022/03/19 05:15:37;;;;;;;37.97;13.75;;;;;;;-2.23;100.00;101356.53;4356036;32;20118;-72
2022/03/19 05:18:04;;;;;;;41.33;16.37;;;;;;;-2.13;100.00;101379.63;4355146;32;20037;-75
2022/03/19 05:20:31;;;;;;;31.45;11.82;;;;;;;-2.08;100.00;101382.78;4356299;32;20041;-73
2022/03/19 05:22:58;;;;;;;38.92;12.37;;;;;;;-2.35;100.00;101336.28;4341571;33;20029;-72
2022/03/19 05:25:25;;;;;;;30.60;12.77;;;;;;;-2.06;100.00;101372.94;4348562;33;20036;-72
2022/03/19 05:27:52;;;;;;;34.75;13.85;;;;;;;-2.02;100.00;101384.97;4356142;32;20036;-74
2022/03/19 05:30:18;;;;;;;31.75;12.77;;;;;;;-2.31;100.00;101337.75;4354247;32;20040;-72
2022/03/19 05:32:52;;;;;;;32.55;13.18;;;;;;;-1.91;100.00;101392.97;4356019;32;20047;-73
2022/03/19 05:35:21;;;;;;;33.15;13.70;;;;;;;-1.89;100.00;101395.50;4354999;32;20236;-73
2022/03/19 05:37:47;;;;;;;40.67;14.98;;;;;;;-1.85;100.00;101397.81;4355925;32;20105;-72
2022/03/19 05:40:16;;;;;;;38.88;15.23;;;;;;;-2.07;100.00;101352.78;4342175;32;20062;-74
2022/03/19 05:42:44;;;;;;;32.92;13.20;;;;;;;-2.07;100.00;101344.88;4345182;32;20061;-72
2022/03/19 05:45:10;;;;;;;42.42;13.82;;;;;;;-1.70;100.00;101411.69;4342750;32;20405;-73
2022/03/19 05:47:40;;;;;;;34.55;14.27;;;;;;;-1.68;100.00;101408.94;4355732;32;20459;-72
2022/03/19 05:50:07;;;;;;;31.10;13.43;;;;;;;-1.97;100.00;101350.31;4354436;32;20055;-73
2022/03/19 05:52:34;;;;;;;38.72;14.10;;;;;;;-1.54;100.00;101414.06;4353504;32;20112;-73
2022/03/19 05:55:01;;;;;;;35.00;13.43;;;;;;;-1.93;100.00;101352.63;4354541;32;20056;-74
2022/03/19 05:57:27;;;;;;;35.25;12.93;;;;;;;-1.79;100.00;101369.25;4355557;32;20136;-75
2022/03/19 05:59:54;;;;;;;36.10;14.43;;;;;;;-1.81;100.00;101365.91;4354889;32;20039;-74
2022/03/19 06:02:20;;;;;;;31.62;13.27;;;;;;;-1.84;100.00;101370.44;4355851;32;20098;-74
2022/03/19 06:04:47;;;;;;;37.55;13.50;;;;;;;-1.88;100.00;101361.06;4352177;32;20048;-75
2022/03/19 06:07:13;;;;;;;37.40;15.25;;;;;;;-1.79;100.00;101366.63;4344044;32;20093;-74
2022/03/19 06:09:39;;;;;;;32.33;12.95;;;;;;;-1.42;100.00;101414.97;4371180;32;20035;-74
2022/03/19 06:12:06;;;;;;;36.38;13.95;;;;;;;-1.28;100.00;101421.88;4351994;32;20373;-74
2022/03/19 06:14:33;;;;;;;43.13;14.43;;;;;;;-1.21;100.00;101423.09;4355744;32;20463;-75
2022/03/19 06:16:59;;;;;;;29.90;12.70;;;;;;;-1.48;100.00;101371.34;4343195;32;20066;-74
2022/03/19 06:19:26;;;;;;;33.28;13.35;;;;;;;-1.52;99.14;101359.28;4347570;32;20391;-74
2022/03/19 06:21:53;;;;;;;29.37;14.15;;;;;;;-1.00;98.66;101436.53;4355704;32;20048;-77
2022/03/19 06:24:25;;;;;;;31.65;13.62;;;;;;;-0.93;97.77;101429.78;4356093;32;20069;-72
2022/03/19 06:26:52;;;;;;;41.90;13.90;;;;;;;-1.14;96.80;101384.66;4342403;32;20032;-75
2022/03/19 06:29:18;;;;;;;36.50;15.02;;;;;;;-0.84;97.51;101425.62;4354105;32;20057;-74
2022/03/19 06:31:45;;;;;;;30.33;14.20;;;;;;;-0.84;97.24;101407.09;4343425;32;20375;-74
2022/03/19 06:34:12;;;;;;;35.67;14.07;;;;;;;-0.56;97.61;101442.88;4327150;33;20442;-73
2022/03/19 06:39:23;;;;;;;36.42;13.15;;;;;;;-0.41;96.21;101442.66;4354266;32;20066;-73
2022/03/19 06:41:50;;;;;;;37.65;14.43;;;;;;;-0.30;94.80;101445.31;4354703;32;20419;-73
2022/03/19 06:44:16;;;;;;;33.92;13.05;;;;;;;-0.47;93.86;101416.66;4354940;32;20408;-73
2022/03/19 06:46:43;;;;;;;35.10;14.45;;;;;;;-0.21;92.80;101451.69;4341086;32;20349;-73
2022/03/19 06:49:09;;;;;;;34.35;13.50;;;;;;;-0.32;93.82;101410.19;4353331;32;20088;-75
2022/03/19 06:51:36;;;;;;;39.13;13.23;;;;;;;-0.12;91.03;101432.44;4355010;32;20405;-72
2022/03/19 06:54:04;;;;;;;36.22;13.07;;;;;;;0.23;87.28;101467.69;4370357;32;20047;-72
2022/03/19 06:56:30;;;;;;;37.33;12.40;;;;;;;0.04;85.08;101410.03;4364591;32;20389;-72
2022/03/19 06:58:57;;;;;;;37.00;14.02;;;;;;;0.43;85.06;101479.31;4355415;32;20073;-72
2022/03/19 07:01:24;;;;;;;36.35;13.85;;;;;;;0.15;81.95;101413.50;4352441;32;20055;-73
2022/03/19 07:03:51;;;;;;;31.48;12.55;;;;;;;0.64;82.95;101477.59;4345018;32;20113;-74
2022/03/19 07:06:18;;;;;;;31.52;13.02;;;;;;;0.69;80.87;101477.22;4345834;32;20036;-71
2022/03/19 07:08:52;;;;;;;33.30;12.95;;;;;;;0.79;79.34;101479.97;4355348;33;20036;-72
2022/03/19 07:11:18;;;;;;;28.23;12.68;;;;;;;0.88;79.62;101481.88;4352096;33;20044;-74
2022/03/19 07:13:45;;;;;;;26.55;11.95;;;;;;;0.96;79.68;101490.03;4353211;33;20066;-70
2022/03/19 07:16:12;;;;;;;29.15;11.30;;;;;;;0.96;77.09;101479.44;4360478;32;20085;-70
2022/03/19 07:18:38;;;;;;;32.28;11.95;;;;;;;1.01;75.90;101474.56;4355534;32;20330;-69
2022/03/19 07:21:05;;;;;;;32.88;13.60;;;;;;;1.19;72.58;101487.28;4352880;33;20066;-69
2022/03/19 07:23:31;;;;;;;24.50;11.15;;;;;;;1.04;72.29;101447.78;4343212;32;20024;-69
2022/03/19 07:25:59;;;;;;;33.05;10.95;;;;;;;1.26;70.31;101467.19;4360004;32;20073;-69
2022/03/19 07:28:27;;;;;;;22.42;10.93;;;;;;;1.44;66.87;101481.59;4354738;32;20450;-70
2022/03/19 07:30:56;;;;;;;37.92;11.77;;;;;;;1.51;65.00;101475.75;4353792;33;20058;-69
2022/03/19 07:33:23;;;;;;;23.62;11.00;;;;;;;1.70;62.32;101486.50;4354715;33;20032;-69
2022/03/19 07:35:50;;;;;;;24.95;11.35;;;;;;;1.45;61.86;101424.88;4351251;33;20434;-70
2022/03/19 07:38:16;;;;;;;28.23;10.85;;;;;;;1.89;63.35;101500.84;4354812;32;20062;-69
2022/03/19 07:43:30;;;;;;;30.75;11.55;;;;;;;1.71;63.97;101435.06;4356148;32;20066;-71
2022/03/19 07:45:57;;;;;;;29.60;11.75;;;;;;;2.22;62.61;101485.59;4356499;32;20069;-72
2022/03/19 07:48:23;;;;;;;23.98;10.93;;;;;;;2.41;62.18;101496.31;4354738;32;20415;-72
2022/03/19 07:50:50;;;;;;;23.33;11.75;;;;;;;2.14;62.99;101463.19;4364122;32;20205;-73
2022/03/19 07:53:16;;;;;;;28.58;12.02;;;;;;;2.30;61.65;101494.59;4358689;32;20040;-72
2022/03/19 07:55:42;;;;;;;28.10;10.77;;;;;;;2.30;61.29;101499.06;4356446;32;20288;-73
2022/03/19 07:58:10;;;;;;;28.38;11.90;;;;;;;2.36;61.72;101503.81;4357084;32;20431;-72
2022/03/19 08:00:36;;;;;;;22.40;11.18;;;;;;;2.38;61.43;101501.91;4357130;32;20043;-71
2022/03/19 08:03:03;;;;;;;23.87;11.52;;;;;;;2.44;61.75;101506.69;4352243;32;20069;-72
2022/03/19 08:05:30;;;;;;;24.60;11.18;;;;;;;2.60;61.44;101510.63;4355629;32;20452;-75
2022/03/19 08:07:56;;;;;;;23.20;10.30;;;;;;;2.59;60.55;101512.44;4356121;32;20048;-72
2022/03/19 08:10:24;;;;;;;21.62;10.55;;;;;;;2.82;57.19;101521.00;4357080;32;20081;-72
2022/03/19 08:12:58;;;;;;;23.10;9.88;;;;;;;2.88;55.46;101512.47;4355783;32;20035;-72
2022/03/19 08:15:24;;;;;;;22.58;10.57;;;;;;;3.03;54.82;101512.06;4357295;32;20044;-73
2022/03/19 08:17:51;;;;;;;20.88;10.95;;;;;;;3.13;54.12;101518.25;4354317;32;20070;-74
2022/03/19 08:20:17;;;;;;;21.35;10.48;;;;;;;3.17;54.03;101509.00;4357054;32;20666;-73
2022/03/19 08:22:44;;;;;;;17.48;8.85;;;;;;;3.30;53.94;101529.19;4355749;32;20457;-73
2022/03/19 08:25:10;;;;;;;19.17;8.98;;;;;;;3.30;51.35;101521.19;4348639;32;20125;-73
2022/03/19 08:27:37;;;;;;;19.08;9.52;;;;;;;3.20;51.24;101514.03;4343703;32;20070;-74
2022/03/19 08:30:04;;;;;;;21.80;11.07;;;;;;;2.95;50.94;101477.31;4352480;32;20063;-73
2022/03/19 08:32:31;;;;;;;20.95;10.05;;;;;;;3.22;50.06;101527.22;4343315;32;20043;-73
2022/03/19 08:34:58;;;;;;;19.95;10.73;;;;;;;2.81;49.58;101460.81;4356041;32;20063;-72
2022/03/19 08:37:26;;;;;;;15.88;9.48;;;;;;;3.25;49.54;101527.75;4356813;32;20158;-73
2022/03/19 08:42:39;;;;;;;20.05;10.35;;;;;;;3.35;49.02;101532.25;4349759;32;20051;-73
2022/03/19 08:45:06;;;;;;;17.65;10.10;;;;;;;3.41;49.18;101521.03;4357435;32;20095;-73
2022/03/19 08:47:33;;;;;;;21.73;9.77;;;;;;;3.23;48.37;101479.12;4342081;32;20085;-73
2022/03/19 08:50:00;;;;;;;16.10;8.57;;;;;;;3.33;47.92;101480.97;4354620;32;20848;-73
2022/03/19 08:52:26;;;;;;;17.75;9.10;;;;;;;3.32;47.43;101489.91;4342814;32;20040;-74
2022/03/19 08:54:53;;;;;;;17.75;9.82;;;;;;;3.58;47.34;101533.62;4361529;32;20062;-74
2022/03/19 08:57:20;;;;;;;23.33;11.73;;;;;;;3.25;47.04;101477.16;4362121;32;20469;-75
2022/03/19 08:59:46;;;;;;;20.40;10.70;;;;;;;3.59;46.62;101522.00;4360127;32;20058;-74
2022/03/19 09:02:12;;;;;;;19.37;8.77;;;;;;;3.58;47.25;101488.34;4356574;32;20055;-74
2022/03/19 09:04:39;;;;;;;23.35;10.88;;;;;;;3.58;47.54;101480.34;4356861;32;20035;-74
2022/03/19 09:07:06;;;;;;;20.80;9.75;;;;;;;3.74;46.37;101484.25;4356431;32;20052;-73
2022/03/19 09:09:32;;;;;;;19.27;9.48;;;;;;;4.16;45.97;101534.47;4337968;32;20032;-74
2022/03/19 09:11:59;;;;;;;19.23;9.77;;;;;;;4.30;45.33;101522.47;4353012;32;20091;-73
2022/03/19 09:14:27;;;;;;;17.83;9.43;;;;;;;4.34;45.23;101530.03;4340858;32;20054;-73
2022/03/19 09:16:59;;;;;;;18.77;9.05;;;;;;;4.27;44.64;101525.44;4355893;32;20066;-73
2022/03/19 09:19:27;;;;;;;21.30;8.85;;;;;;;4.35;44.08;101530.88;4347599;32;20044;-74
2022/03/19 09:21:54;;;;;;;19.02;9.60;;;;;;;3.96;43.54;101489.22;4332234;32;20827;-72
2022/03/19 09:24:21;;;;;;;18.55;8.77;;;;;;;3.91;43.76;101488.81;4353224;32;20487;-73
2022/03/19 09:26:49;;;;;;;22.65;9.82;;;;;;;4.21;44.64;101529.53;4353802;32;20048;-75
2022/03/19 09:29:15;;;;;;;23.12;8.00;;;;;;;3.86;45.11;101467.09;4340738;33;20036;-79
2022/03/19 09:31:42;;;;;;;17.55;7.20;;;;;;;4.02;43.50;101486.94;4353608;32;20048;-76
2022/03/19 09:34:10;;;;;;;15.07;7.45;;;;;;;4.49;42.27;101518.88;4356556;32;20175;-73
2022/03/19 09:36:36;;;;;;;19.12;8.93;;;;;;;4.51;41.81;101483.03;4355373;32;20079;-72
2022/03/19 09:39:04;;;;;;;16.55;8.63;;;;;;;4.74;42.61;101536.03;4340153;32;20040;-74
2022/03/19 09:41:31;;;;;;;21.05;7.93;;;;;;;4.79;42.92;101535.56;4351845;32;20440;-77
2022/03/19 09:44:01;;;;;;;12.18;7.53;;;;;;;4.73;41.72;101519.16;4342063;32;20933;-73
2022/03/19 09:46:29;;;;;;;17.02;8.63;;;;;;;4.36;41.50;101485.38;4350980;32;20089;-73
2022/03/19 09:48:55;;;;;;;17.10;8.32;;;;;;;4.82;42.49;101537.91;4342980;32;20069;-73
2022/03/19 09:51:23;;;;;;;20.00;9.48;;;;;;;4.45;41.78;101474.81;4339969;33;20067;-75
2022/03/19 09:53:49;;;;;;;18.92;9.10;;;;;;;4.87;42.16;101530.31;4351283;32;20032;-74
2022/03/19 09:56:16;;;;;;;16.58;9.48;;;;;;;4.99;41.86;101534.41;4352703;32;20091;-74
2022/03/19 09:58:43;;;;;;;25.45;9.93;;;;;;;4.85;41.10;101526.94;4354083;32;20061;-74
2022/03/19 10:01:09;;;;;;;20.45;10.05;;;;;;;4.63;41.02;101485.53;4349900;32;20066;-74
2022/03/19 10:03:40;;;;;;;20.20;9.30;;;;;;;4.99;40.89;101523.75;4351154;32;20036;-77
2022/03/19 10:08:59;;;;;;;22.55;9.77;;;;;;;4.87;40.16;101476.91;4354366;32;20075;-73
2022/03/19 10:11:34;;;;;;;21.75;10.32;;;;;;;5.29;40.00;101529.69;4352366;32;20587;-75
2022/03/19 10:14:09;;;;;;;18.85;9.35;;;;;;;5.19;39.81;101526.28;4328727;33;20091;-73
2022/03/19 10:16:36;;;;;;;20.67;11.00;;;;;;;5.16;40.39;101524.75;4341410;32;20070;-73
2022/03/19 10:19:09;;;;;;;19.23;10.07;;;;;;;5.10;41.27;101525.34;4325414;33;20036;-74
2022/03/19 10:21:40;;;;;;;22.65;10.77;;;;;;;5.42;41.87;101529.31;4345444;32;20043;-72
2022/03/19 10:24:08;;;;;;;24.15;11.65;;;;;;;5.67;42.85;101538.37;4349171;32;20052;-73
2022/03/19 10:26:37;;;;;;;24.05;12.70;;;;;;;5.96;42.30;101532.72;4357875;32;20039;-74
2022/03/19 10:29:06;;;;;;;32.38;11.90;;;;;;;5.19;42.40;101487.06;4325805;33;20870;-72
2022/03/19 10:31:35;;;;;;;28.40;13.73;;;;;;;5.76;42.90;101536.56;4338370;33;20105;-72
2022/03/19 10:34:03;;;;;;;22.58;11.40;;;;;;;5.70;41.72;101538.06;4343412;32;20134;-72
2022/03/19 10:36:38;;;;;;;17.70;9.80;;;;;;;5.78;41.90;101487.31;4341889;32;20334;-72
2022/03/19 10:39:25;;;;;;;22.75;9.38;;;;;;;6.31;41.95;101536.25;4339265;32;20173;-71
2022/03/19 10:41:52;;;;;;;17.65;10.77;;;;;;;6.17;39.99;101539.53;4337895;33;20083;-72
2022/03/19 10:44:20;;;;;;;18.27;8.82;;;;;;;5.40;40.65;101419.91;4338586;33;20077;-75
2022/03/19 10:46:48;;;;;;;16.05;9.00;;;;;;;5.57;40.10;101494.87;4338653;32;20528;-72
2022/03/19 10:49:17;;;;;;;21.12;10.07;;;;;;;5.91;40.74;101528.84;4339294;32;20088;-72
2022/03/19 10:51:49;;;;;;;19.92;9.63;;;;;;;6.16;41.08;101530.69;4351555;32;20069;-72
2022/03/19 10:54:16;;;;;;;16.83;8.63;;;;;;;6.20;40.22;101495.56;4352157;32;20192;-74
2022/03/19 10:56:45;;;;;;;16.85;8.40;;;;;;;6.37;39.53;101486.62;4353076;32;20094;-74
2022/03/19 10:59:11;;;;;;;19.65;10.32;;;;;;;6.32;38.86;101484.44;4340520;33;20385;-73
2022/03/19 11:01:39;;;;;;;17.62;9.35;;;;;;;6.65;39.04;101526.50;4338466;33;20085;-72
2022/03/19 11:04:07;;;;;;;18.25;10.07;;;;;;;6.77;38.03;101511.84;4348571;32;20315;-72
2022/03/19 11:06:40;;;;;;;18.52;10.15;;;;;;;6.57;38.44;101464.94;4348294;32;20049;-73
2022/03/19 11:09:10;;;;;;;22.08;9.27;;;;;;;7.03;38.48;101524.25;4352366;32;20059;-72
2022/03/19 11:11:48;;;;;;;21.40;9.43;;;;;;;6.89;38.15;101465.00;4352190;33;20052;-73
2022/03/19 11:14:22;;;;;;;16.27;9.18;;;;;;;7.74;38.25;101516.56;4351940;32;20130;-74
2022/03/19 11:17:23;;;;;;;16.62;8.38;;;;;;;7.59;36.43;101468.13;4358643;32;20086;-73
2022/03/19 11:19:44;;;;;;;19.95;9.10;;;;;;;7.95;36.24;101507.97;4365289;32;20048;-75
2022/03/19 11:22:12;;;;;;;16.27;8.10;;;;;;;7.75;35.35;101453.87;4356970;32;20105;-73
2022/03/19 11:24:48;;;;;;;16.12;8.05;;;;;;;8.41;33.72;101501.91;4339262;32;20073;-73
2022/03/19 11:27:15;;;;;;;14.75;8.00;;;;;;;8.54;34.15;101488.81;4372067;32;20057;-73
2022/03/19 11:29:42;;;;;;;15.27;8.98;;;;;;;8.72;33.25;101467.06;4344208;32;20077;-75
2022/03/19 11:32:20;;;;;;;13.05;7.82;;;;;;;8.56;33.72;101494.84;4365283;32;20194;-73
2022/03/19 11:34:48;;;;;;;18.45;9.23;;;;;;;8.66;34.42;101495.47;4350855;32;20058;-72